Flight Track Log - Related Links

Times and Time Zones

All times are in EDT time to prevent confusion due to time zone crossing. See the GJS3636 flight status page for this flight to view local times or setup timezone preferences in your user account.

Time Position Orientation Groundspeed Altitude Reporting Facility
EDT Latitude Longitude Course Direction KTS MPH feet Rate Location/Type
Mon 09:06:59 AM 42.0000 -87.9833 254° West 168 193 2,700  Level Chicago TRACON
Mon 09:07:59 AM 41.9833 -88.0667 255° West 225 259 4,500 2,081 Climbing Chicago TRACON
Mon 09:09:03 AM 41.9797 -88.1592 267° West 239 275 7,000 2,381 Climbing Chicago Center
Mon 09:10:05 AM 41.9683 -88.2597 261° West 269 310 9,500 2,613 Climbing Chicago Center
Mon 09:11:07 AM 41.9569 -88.3608 261° West 275 316 12,400 1,694 Climbing Chicago Center
Mon 09:12:00 AM 41.8066 -88.6044 254° West  Level FlightAware Approximate
Mon 09:12:09 AM 41.9439 -88.4639 260° West 282 325 13,000  Level Chicago Center
Mon 09:13:11 AM 41.9319 -88.5672 261° West 284 327 13,000 48 Level Chicago Center
Mon 09:14:13 AM 41.9186 -88.6917 262° West 284 327 13,100 919 Climbing Chicago Center
Mon 09:15:15 AM 41.8817 -88.8086 247° West 337 388 14,900 1,790 Climbing Chicago Center
Mon 09:16:17 AM 41.8467 -88.9283 249° West 346 398 16,800 1,742 Climbing Chicago Center
Mon 09:17:19 AM 41.8100 -89.0511 248° West 355 409 18,500 1,452 Climbing Chicago Center
Mon 09:18:21 AM 41.7719 -89.1758 248° West 364 419 19,800 1,344 Climbing Chicago Center
Mon 09:19:24 AM 41.7242 -89.3381 249° West 391 450 21,300 1,440 Climbing Chicago Center
Mon 09:20:26 AM 41.6844 -89.4714 248° West 391 450 22,800 1,210 Climbing Chicago Center
Mon 09:21:28 AM 41.6464 -89.5936 247° West 394 453 23,800 1,113 Climbing Chicago Center
Mon 09:22:30 AM 41.5961 -89.7592 248° West 402 463 25,100 1,113 Climbing Chicago Center
Mon 09:23:32 AM 41.5447 -89.8972 244° Southwest 417 480 26,100 968 Climbing Chicago Center
Mon 09:24:34 AM 41.4800 -90.0247 236° Southwest 419 482 27,100 968 Climbing Chicago Center
Mon 09:25:36 AM 41.4136 -90.1553 236° Southwest 425 489 28,100 1,113 Climbing Chicago Center
Mon 09:26:38 AM 41.3494 -90.2842 236° Southwest 422 486 29,400 1,306 Climbing Chicago Center
Mon 09:27:40 AM 41.2722 -90.4364 236° Southwest 416 479 30,800 1,306 Climbing Chicago Center
Mon 09:28:42 AM 41.2083 -90.5628 236° Southwest 417 480 32,100 1,258 Climbing Chicago Center
Mon 09:29:44 AM 41.1464 -90.6828 236° Southwest 406 467 33,400 1,210 Climbing Chicago Center
Mon 09:30:46 AM 41.0875 -90.7983 236° Southwest 389 448 34,600 1,056 Climbing Chicago Center
Mon 09:31:49 AM 41.0311 -90.9083 236° Southwest 372 428 35,600 672 Climbing Chicago Center
Mon 09:32:51 AM 40.9742 -91.0183 236° Southwest 365 420 36,000 194 Climbing Chicago Center
Mon 09:33:53 AM 40.9056 -91.1489 235° Southwest 363 418 36,000  Level Chicago Center
Mon 09:34:55 AM 40.8486 -91.2556 235° Southwest 358 412 36,000  Level Chicago Center
Mon 09:35:57 AM 40.8000 -91.3536 237° Southwest 355 409 36,000  Level Chicago Center
Mon 09:36:59 AM 40.7306 -91.4831 235° Southwest 360 414 36,000  Level Chicago Center
Mon 09:38:01 AM 40.6736 -91.5931 236° Southwest 365 420 36,000 -194 Level Chicago Center
Mon 09:39:03 AM 40.6136 -91.7028 234° Southwest 370 426 35,600 -667 Descending Chicago Center
Mon 09:39:31 AM 40.5906 -91.7450 234° Southwest 368 423 35,000 -1,067 Descending Kansas City Center
Mon 09:40:33 AM 40.5328 -91.8544 235° Southwest 366 421 34,000 -938 Descending Kansas City Center
Mon 09:41:07 AM 40.4983 -91.9222 236° Southwest 369 425 33,500 -1,125 Descending Chicago Center
Mon 09:42:09 AM 40.4361 -92.0692 241° Southwest 383 441 32,200 -1,056 Descending Chicago Center
Mon 09:43:12 AM 40.3800 -92.2003 241° Southwest 407 468 31,300 -944 Descending Chicago Center
Mon 09:43:38 AM 40.3567 -92.2514 239° Southwest 411 473 30,800 -867 Descending Kansas City Center
Mon 09:44:42 AM 40.2911 -92.4008 240° Southwest 415 478 30,000 -432 Descending Kansas City Center
Mon 09:45:43 AM 40.2344 -92.5300 240° Southwest 422 486 29,900 -843 Descending Kansas City Center
Mon 09:46:43 AM 40.1789 -92.6586 241° Southwest 425 489 28,300 -1,597 Descending Kansas City Center
Mon 09:47:47 AM 40.1122 -92.8086 240° Southwest 426 490 26,600 -1,645 Descending Kansas City Center
Mon 09:48:47 AM 40.0511 -92.9478 240° Southwest 415 478 24,900 -1,548 Descending Kansas City Center
Mon 09:49:51 AM 39.9939 -93.0733 239° Southwest 408 470 23,400 -1,403 Descending Kansas City Center
Mon 09:50:51 AM 39.9386 -93.1964 240° Southwest 400 460 22,000 -1,452 Descending Kansas City Center
Mon 09:51:55 AM 39.8828 -93.3200 240° Southwest 398 458 20,400 -1,488 Descending Kansas City Center
Mon 09:52:56 AM 39.8294 -93.4397 240° Southwest 389 448 18,900 -1,279 Descending Kansas City Center
Mon 09:53:57 AM 39.7778 -93.5517 239° Southwest 374 430 17,800 -1,536 Descending Kansas City Center
Mon 09:55:01 AM 39.7161 -93.6883 240° Southwest 369 425 15,700 -1,680 Descending Kansas City Center
Mon 09:56:02 AM 39.6672 -93.7914 238° Southwest 368 423 14,300 -1,525 Descending Kansas City Center
Mon 09:57:03 AM 39.6089 -93.9192 239° Southwest 367 422 12,600 -1,113 Descending Kansas City Center
Mon 09:58:06 AM 39.5564 -94.0233 237° Southwest 362 417 12,000 -290 Descending Kansas City Center
Mon 09:59:07 AM 39.4944 -94.1442 236° Southwest 360 414 12,000 -48 Level Kansas City Center
Mon 10:00:11 AM 39.4425 -94.2478 237° Southwest 358 412 11,900 -48 Descending Kansas City Center
Mon 10:01:12 AM 39.3839 -94.3639 237° Southwest 347 399 11,900 -581 Level Kansas City Center
Mon 10:02:15 AM 39.3369 -94.4553 236° Southwest 321 369 10,700 -1,210 Descending Kansas City Center
Mon 10:03:16 AM 39.2892 -94.5497 237° Southwest 282 325 9,400 -1,279 Descending Kansas City Center
Mon 10:04:17 AM 39.2453 -94.6058 225° Southwest 241 277 8,100 -1,421 Descending Kansas City Center
Mon 10:06:26 AM 39.1000 -94.6333 188° South 231 266 4,900 -1,079 Descending Kansas City TRACON
Mon 10:07:26 AM 39.1000 -94.7167 270° West 233 268 4,700 -793 Descending Kansas City TRACON
Mon 10:08:27 AM 39.1494 -94.7672 322° Northwest 227 261 3,300 -1,377 Descending Kansas City Center

Login

Don't have an account? Register now (free) for customized features, flight alerts, and more!